Time;durP1;ratioP1;P1;durP2;ratioP2;P2;SDS_P1;SDS_P2;PMS_P1;PMS_P2;Temp;Humidity;BMP_temperature;BMP_pressure;BME280_temperature;BME280_humidity;BME280_pressure;Samples;Min_cycle;Max_cycle;Signal;HPM_P1;HPM_P2
2023/03/24 00:01:21;;;;;;;;;;;18.70;53.90;;;;;;5071123;28;19990;-68
2023/03/24 00:03:50;;;;;;;;;;;18.70;53.90;;;;;;5072515;28;19970;-68
2023/03/24 00:06:17;;;;;;;;;;;18.70;53.90;;;;;;5071456;28;20379;-68
2023/03/24 00:08:46;;;;;;;;;;;18.70;53.90;;;;;;5071514;28;19969;-68
2023/03/24 00:11:13;;;;;;;;;;;18.70;53.90;;;;;;5071038;28;19970;-69
2023/03/24 00:13:39;;;;;;;;;;;18.70;53.90;;;;;;5071090;28;19928;-68
2023/03/24 00:16:05;;;;;;;;;;;18.70;54.00;;;;;;5071423;28;19947;-69
2023/03/24 00:18:31;;;;;;;;;;;18.70;54.00;;;;;;5071370;28;20015;-68
2023/03/24 00:20:58;;;;;;;;;;;18.70;54.00;;;;;;5071891;28;20023;-69
2023/03/24 00:23:24;;;;;;;;;;;18.70;54.10;;;;;;5072474;28;19928;-68
2023/03/24 00:25:57;;;;;;;;;;;18.60;53.90;;;;;;5070205;28;19920;-70
2023/03/24 00:28:24;;;;;;;;;;;18.70;54.10;;;;;;5070768;28;19960;-68
2023/03/24 00:30:52;;;;;;;;;;;18.60;54.00;;;;;;5070931;28;20402;-68
2023/03/24 00:33:18;;;;;;;;;;;18.70;54.10;;;;;;5071116;28;20010;-68
2023/03/24 00:35:44;;;;;;;;;;;18.70;54.10;;;;;;5070936;28;20019;-68
2023/03/24 00:38:11;;;;;;;;;;;18.60;54.10;;;;;;5071140;28;19927;-68
2023/03/24 00:40:36;;;;;;;;;;;18.70;54.10;;;;;;5072049;28;19920;-68
2023/03/24 00:43:02;;;;;;;;;;;18.60;54.10;;;;;;5072004;28;19984;-68
2023/03/24 00:45:28;;;;;;;;;;;18.60;54.10;;;;;;5074688;28;19924;-68
2023/03/24 00:47:57;;;;;;;;;;;18.60;54.10;;;;;;5075048;28;19924;-68
2023/03/24 00:50:25;;;;;;;;;;;18.60;54.10;;;;;;5074895;28;19924;-69
2023/03/24 00:52:51;;;;;;;;;;;18.60;54.10;;;;;;5075877;28;19927;-69
2023/03/24 00:55:16;;;;;;;;;;;18.60;54.10;;;;;;5074937;28;20265;-68
2023/03/24 00:57:49;;;;;;;;;;;18.60;54.10;;;;;;5074800;28;19974;-68
2023/03/24 01:00:18;;;;;;;;;;;18.60;54.20;;;;;;5074542;28;20379;-68
2023/03/24 01:02:52;;;;;;;;;;;18.60;54.20;;;;;;5074366;28;19924;-69
2023/03/24 01:05:19;;;;;;;;;;;18.60;54.20;;;;;;5075951;28;20345;-68
2023/03/24 01:07:50;;;;;;;;;;;18.50;54.20;;;;;;5075802;28;19920;-68
2023/03/24 01:10:20;;;;;;;;;;;18.60;54.30;;;;;;5074624;28;19928;-68
2023/03/24 01:12:46;;;;;;;;;;;18.60;54.30;;;;;;5074313;28;19927;-68
2023/03/24 01:15:13;;;;;;;;;;;18.60;54.30;;;;;;5074538;28;19921;-68
2023/03/24 01:17:39;;;;;;;;;;;18.50;54.20;;;;;;5074414;28;19921;-68
2023/03/24 01:20:07;;;;;;;;;;;18.50;54.30;;;;;;5075685;28;20356;-69
2023/03/24 01:22:36;;;;;;;;;;;18.60;54.40;;;;;;5073731;28;20384;-69
2023/03/24 01:25:03;;;;;;;;;;;18.50;54.30;;;;;;5074318;28;19920;-68
2023/03/24 01:27:29;;;;;;;;;;;18.60;54.40;;;;;;5074002;28;19925;-68
2023/03/24 01:29:59;;;;;;;;;;;18.50;54.30;;;;;;5074349;28;20007;-68
2023/03/24 01:32:31;;;;;;;;;;;18.50;54.40;;;;;;5074174;28;20058;-69
2023/03/24 01:34:56;;;;;;;;;;;18.50;54.40;;;;;;5075290;28;19921;-68
2023/03/24 01:37:22;;;;;;;;;;;18.50;54.40;;;;;;5073794;28;19920;-68
2023/03/24 01:39:49;;;;;;;;;;;18.50;54.40;;;;;;5073777;28;20009;-73
2023/03/24 01:42:17;;;;;;;;;;;18.50;54.40;;;;;;5073653;28;19924;-68
2023/03/24 01:44:45;;;;;;;;;;;18.50;54.50;;;;;;5073990;28;19924;-68
2023/03/24 01:47:11;;;;;;;;;;;18.50;54.70;;;;;;5073627;28;20380;-68
2023/03/24 01:49:41;;;;;;;;;;;18.50;54.50;;;;;;5073564;28;19931;-68
2023/03/24 01:52:10;;;;;;;;;;;18.50;54.50;;;;;;5074920;28;19920;-68
2023/03/24 01:54:39;;;;;;;;;;;18.50;54.60;;;;;;5074393;28;20007;-68
2023/03/24 01:59:47;;;;;;;;;;;18.50;54.60;;;;;;5110704;27;19937;-68
2023/03/24 02:02:13;;;;;;;;;;;18.50;54.60;;;;;;5109000;28;19920;-68
2023/03/24 02:04:41;;;;;;;;;;;18.50;54.60;;;;;;5109244;28;19921;-68
2023/03/24 02:07:10;;;;;;;;;;;18.50;54.70;;;;;;5108885;28;19920;-68
2023/03/24 02:09:36;;;;;;;;;;;18.50;54.70;;;;;;5109067;28;19955;-68
2023/03/24 02:12:01;;;;;;;;;;;18.50;54.70;;;;;;5108770;28;19963;-68
2023/03/24 02:14:28;;;;;;;;;;;18.40;54.70;;;;;;5108669;28;19924;-68
2023/03/24 02:17:00;;;;;;;;;;;18.40;54.70;;;;;;5109970;28;19920;-69
2023/03/24 02:19:46;;;;;;;;;;;18.50;54.60;;;;;;5108507;28;20368;-68
2023/03/24 02:25:12;;;;;;;;;;;18.90;54.00;;;;;;5110089;27;19912;-68
2023/03/24 02:27:46;;;;;;;;;;;19.40;53.60;;;;;;5109013;28;20280;-68
2023/03/24 02:30:22;;;;;;;;;;;19.80;53.00;;;;;;5109163;28;19970;-72
2023/03/24 02:35:48;;;;;;;;;;;20.90;51.30;;;;;;5110234;27;19964;-68
2023/03/24 02:38:29;;;;;;;;;;;21.40;50.20;;;;;;5108720;28;19923;-68
2023/03/24 02:46:31;;;;;;;;;;;22.60;47.70;;;;;;5110661;27;19918;-68
2023/03/24 02:49:17;;;;;;;;;;;22.90;47.40;;;;;;5108937;28;20375;-68
2023/03/24 02:51:54;;;;;;;;;;;23.00;46.60;;;;;;5109142;28;19981;-68
2023/03/24 02:54:32;;;;;;;;;;;23.20;46.50;;;;;;5110613;28;19969;-68
2023/03/24 02:57:09;;;;;;;;;;;23.20;46.30;;;;;;5109175;28;19920;-68
2023/03/24 02:59:39;;;;;;;;;;;23.10;46.00;;;;;;5108622;28;20443;-68
2023/03/24 03:04:48;;;;;;;;;;;22.90;46.00;;;;;;5089819;28;20401;-68
2023/03/24 03:07:16;;;;;;;;;;;22.80;46.10;;;;;;5089903;28;19974;-69
2023/03/24 03:09:45;;;;;;;;;;;22.70;46.20;;;;;;5088557;28;19920;-69
2023/03/24 03:12:11;;;;;;;;;;;22.50;46.40;;;;;;5105625;28;19927;-69
2023/03/24 03:14:38;;;;;;;;;;;22.40;46.60;;;;;;5088805;28;19924;-69
2023/03/24 03:17:06;;;;;;;;;;;22.20;46.70;;;;;;5089742;28;20180;-69
2023/03/24 03:19:36;;;;;;;;;;;22.00;47.00;;;;;;5088394;28;19924;-68
2023/03/24 03:22:06;;;;;;;;;;;21.90;47.20;;;;;;5088277;28;19920;-69
2023/03/24 03:24:36;;;;;;;;;;;21.80;47.50;;;;;;5088201;28;19931;-68
2023/03/24 03:27:04;;;;;;;;;;;21.60;47.60;;;;;;5088188;28;19921;-68
2023/03/24 03:29:32;;;;;;;;;;;21.50;47.90;;;;;;5088503;28;19920;-68
2023/03/24 03:32:06;;;;;;;;;;;21.40;48.20;;;;;;5088055;28;20003;-68
2023/03/24 03:34:51;;;;;;;;;;;21.30;48.40;;;;;;5088159;28;19983;-68
2023/03/24 03:40:05;;;;;;;;;;;21.30;48.50;;;;;;5193369;27;19910;-68
2023/03/24 03:42:30;;;;;;;;;;;21.30;48.40;;;;;;5174285;27;19925;-68
2023/03/24 03:44:56;;;;;;;;;;;21.40;49.20;;;;;;5174423;27;20022;-69
2023/03/24 03:47:21;;;;;;;;;;;21.40;48.30;;;;;;5174573;27;19919;-69
2023/03/24 03:49:48;;;;;;;;;;;21.50;48.30;;;;;;5174051;27;19919;-69
2023/03/24 03:52:14;;;;;;;;;;;21.50;48.20;;;;;;5174291;27;19922;-68
2023/03/24 03:54:40;;;;;;;;;;;21.50;48.20;;;;;;5174320;27;20144;-67
2023/03/24 03:57:06;;;;;;;;;;;21.50;48.00;;;;;;5192843;27;19919;-68
2023/03/24 03:59:33;;;;;;;;;;;21.60;48.10;;;;;;5174078;27;19937;-68
2023/03/24 04:02:02;;;;;;;;;;;21.60;48.00;;;;;;5174352;27;19919;-69
2023/03/24 04:07:13;;;;;;;;;;;21.70;47.80;;;;;;5110257;27;20260;-68
2023/03/24 04:09:45;;;;;;;;;;;21.70;47.70;;;;;;5109287;28;20334;-69
2023/03/24 04:12:18;;;;;;;;;;;21.70;47.70;;;;;;5108819;28;19927;-69
2023/03/24 04:14:50;;;;;;;;;;;21.80;47.70;;;;;;5110557;28;20350;-69
2023/03/24 04:17:24;;;;;;;;;;;21.80;47.70;;;;;;5108333;28;20303;-69
2023/03/24 04:20:11;;;;;;;;;;;21.70;47.50;;;;;;5108867;28;19923;-69
2023/03/24 04:22:56;;;;;;;;;;;21.80;47.50;;;;;;5109972;28;20343;-69
2023/03/24 04:25:29;;;;;;;;;;;21.70;47.40;;;;;;5108657;28;20410;-68
2023/03/24 04:27:59;;;;;;;;;;;21.70;47.40;;;;;;5108526;28;19963;-69
2023/03/24 04:30:32;;;;;;;;;;;21.70;47.40;;;;;;5108914;28;20392;-69
2023/03/24 04:32:58;;;;;;;;;;;21.70;47.40;;;;;;5108419;28;19967;-69
2023/03/24 04:35:30;;;;;;;;;;;21.60;47.50;;;;;;5108663;28;20011;-69
2023/03/24 04:37:58;;;;;;;;;;;21.60;47.60;;;;;;5109879;28;19963;-68
2023/03/24 04:40:23;;;;;;;;;;;21.60;47.60;;;;;;5108381;28;19972;-69
2023/03/24 04:42:51;;;;;;;;;;;21.60;47.50;;;;;;5108657;28;20026;-69
2023/03/24 04:45:17;;;;;;;;;;;21.60;47.50;;;;;;5108222;28;19931;-69
2023/03/24 04:47:46;;;;;;;;;;;21.60;47.40;;;;;;5108487;28;19920;-69
2023/03/24 04:50:12;;;;;;;;;;;21.70;47.40;;;;;;5108095;28;19920;-69
2023/03/24 04:52:38;;;;;;;;;;;21.70;47.20;;;;;;5108533;28;19962;-69
2023/03/24 04:55:14;;;;;;;;;;;21.70;47.20;;;;;;5108046;28;20014;-69
2023/03/24 04:57:40;;;;;;;;;;;21.70;47.10;;;;;;5109329;28;19924;-68
2023/03/24 05:00:07;;;;;;;;;;;21.70;47.00;;;;;;5108246;28;19926;-68
2023/03/24 05:02:32;;;;;;;;;;;21.70;47.10;;;;;;5107924;28;19920;-69
2023/03/24 05:04:58;;;;;;;;;;;21.70;47.00;;;;;;5110527;28;19931;-69
2023/03/24 05:07:23;;;;;;;;;;;21.70;47.00;;;;;;5111248;28;20439;-68
2023/03/24 05:09:49;;;;;;;;;;;21.70;46.90;;;;;;5129575;28;19923;-69
2023/03/24 05:12:15;;;;;;;;;;;21.80;46.80;;;;;;5111163;28;20000;-69
2023/03/24 05:14:40;;;;;;;;;;;21.80;46.70;;;;;;5145330;27;20029;-70
2023/03/24 05:17:06;;;;;;;;;;;21.80;46.70;;;;;;5105285;28;19920;-69
2023/03/24 05:19:31;;;;;;;;;;;21.80;46.60;;;;;;5131778;27;20286;-70
2023/03/24 05:22:00;;;;;;;;;;;21.90;46.60;;;;;;5097286;28;20302;-69
2023/03/24 05:24:26;;;;;;;;;;;21.90;46.50;;;;;;5097323;28;19924;-69
2023/03/24 05:26:51;;;;;;;;;;;21.90;46.40;;;;;;5131345;27;19920;-69
2023/03/24 05:29:17;;;;;;;;;;;21.90;46.30;;;;;;5097232;28;19923;-69
2023/03/24 05:31:43;;;;;;;;;;;21.90;46.30;;;;;;5097021;28;19927;-69
2023/03/24 05:34:09;;;;;;;;;;;21.90;46.20;;;;;;5115366;28;19920;-69
2023/03/24 05:36:35;;;;;;;;;;;21.90;46.10;;;;;;5097007;28;19920;-69
2023/03/24 05:39:00;;;;;;;;;;;21.90;46.10;;;;;;5115477;28;19920;-69
2023/03/24 05:41:26;;;;;;;;;;;21.90;46.10;;;;;;5096338;28;19920;-68
2023/03/24 05:43:51;;;;;;;;;;;21.90;46.00;;;;;;5115149;28;19920;-69
2023/03/24 05:46:17;;;;;;;;;;;21.90;46.00;;;;;;5115031;28;20374;-69
2023/03/24 05:48:42;;;;;;;;;;;22.00;46.00;;;;;;5096812;28;19927;-69
2023/03/24 05:51:08;;;;;;;;;;;21.90;45.90;;;;;;5131256;27;19924;-69
2023/03/24 05:53:33;;;;;;;;;;;21.90;45.90;;;;;;5130984;27;19920;-69
2023/03/24 05:55:59;;;;;;;;;;;22.00;45.80;;;;;;5131124;27;19924;-69
2023/03/24 05:58:24;;;;;;;;;;;21.90;45.80;;;;;;5130865;27;20329;-69
2023/03/24 06:00:53;;;;;;;;;;;22.00;45.70;;;;;;5131067;27;19920;-69
2023/03/24 06:03:18;;;;;;;;;;;22.00;45.80;;;;;;5114811;28;20379;-70
2023/03/24 06:05:44;;;;;;;;;;;22.00;45.70;;;;;;5096343;28;19945;-69
2023/03/24 06:08:10;;;;;;;;;;;22.00;45.70;;;;;;5114760;28;19924;-69
2023/03/24 06:10:36;;;;;;;;;;;21.90;45.60;;;;;;5114742;28;19920;-70
2023/03/24 06:13:02;;;;;;;;;;;22.00;45.60;;;;;;5114701;28;19973;-69
2023/03/24 06:15:29;;;;;;;;;;;22.00;45.60;;;;;;5096671;28;20294;-69
2023/03/24 06:17:55;;;;;;;;;;;22.00;45.60;;;;;;5130344;27;19955;-69
2023/03/24 06:20:21;;;;;;;;;;;22.00;45.60;;;;;;5096248;28;20016;-69
2023/03/24 06:22:46;;;;;;;;;;;21.90;45.50;;;;;;5096234;28;19981;-69
2023/03/24 06:25:14;;;;;;;;;;;21.90;45.50;;;;;;5130238;27;19924;-69
2023/03/24 06:27:46;;;;;;;;;;;21.90;45.50;;;;;;5096418;28;20290;-69
2023/03/24 06:30:14;;;;;;;;;;;21.90;45.50;;;;;;5095457;28;19966;-69
2023/03/24 06:32:39;;;;;;;;;;;21.90;45.60;;;;;;5095892;28;20375;-69
2023/03/24 06:35:06;;;;;;;;;;;21.90;45.60;;;;;;5129326;27;19919;-69
2023/03/24 06:37:31;;;;;;;;;;;21.90;45.60;;;;;;5093565;28;19920;-68
2023/03/24 06:39:57;;;;;;;;;;;21.90;45.70;;;;;;5111409;28;20448;-71
2023/03/24 06:42:22;;;;;;;;;;;21.80;45.90;;;;;;5094382;28;19919;-71
2023/03/24 06:44:50;;;;;;;;;;;21.80;46.10;;;;;;5112315;28;19924;-67
2023/03/24 06:47:16;;;;;;;;;;;21.70;46.10;;;;;;5093718;28;19924;-67
2023/03/24 06:49:41;;;;;;;;;;;21.70;46.10;;;;;;5094213;28;19927;-67
2023/03/24 06:52:07;;;;;;;;;;;21.70;46.20;;;;;;5093497;28;19943;-67
2023/03/24 06:54:33;;;;;;;;;;;21.70;46.60;;;;;;5094373;28;20393;-67
2023/03/24 06:56:58;;;;;;;;;;;21.70;46.30;;;;;;5094309;28;20061;-67
2023/03/24 06:59:24;;;;;;;;;;;21.70;46.30;;;;;;5110631;28;19919;-68
2023/03/24 07:01:50;;;;;;;;;;;21.60;46.30;;;;;;5091566;28;19927;-68
2023/03/24 07:04:16;;;;;;;;;;;21.70;46.40;;;;;;5089031;28;19919;-67
2023/03/24 07:06:42;;;;;;;;;;;21.70;46.20;;;;;;5082666;28;20073;-67
2023/03/24 07:09:07;;;;;;;;;;;21.60;46.20;;;;;;5108797;28;19916;-68
2023/03/24 07:11:33;;;;;;;;;;;21.60;46.20;;;;;;5108121;28;19915;-68
2023/03/24 07:13:59;;;;;;;;;;;21.60;46.20;;;;;;5089659;28;19956;-68
2023/03/24 07:16:27;;;;;;;;;;;21.70;46.30;;;;;;5104623;27;20278;-68
2023/03/24 07:19:00;;;;;;;;;;;21.70;46.20;;;;;;5121432;27;19920;-68
2023/03/24 07:21:25;;;;;;;;;;;21.70;46.20;;;;;;5108759;28;20393;-68
2023/03/24 07:23:57;;;;;;;;;;;21.80;46.20;;;;;;5076661;28;19915;-67
2023/03/24 07:26:22;;;;;;;;;;;21.80;46.20;;;;;;5074038;28;20435;-67
2023/03/24 07:28:48;;;;;;;;;;;21.70;46.20;;;;;;5074164;28;19919;-67
2023/03/24 07:31:14;;;;;;;;;;;21.70;46.10;;;;;;5092274;28;19916;-67
2023/03/24 07:33:40;;;;;;;;;;;21.80;46.10;;;;;;5077973;28;20499;-68
2023/03/24 07:36:06;;;;;;;;;;;21.70;46.10;;;;;;5075664;28;19916;-67
2023/03/24 07:38:32;;;;;;;;;;;21.70;46.10;;;;;;5073966;28;19926;-67
2023/03/24 07:40:58;;;;;;;;;;;21.60;45.90;;;;;;5086426;28;20367;-67
2023/03/24 07:43:24;;;;;;;;;;;21.60;46.10;;;;;;5071027;28;19916;-68
2023/03/24 07:45:49;;;;;;;;;;;21.50;46.00;;;;;;5071672;28;19934;-67
2023/03/24 07:48:15;;;;;;;;;;;21.50;46.30;;;;;;5073121;28;19921;-67
2023/03/24 07:50:40;;;;;;;;;;;21.50;46.40;;;;;;5075376;28;19924;-68
2023/03/24 07:53:09;;;;;;;;;;;21.50;46.40;;;;;;5075972;28;19927;-67
2023/03/24 07:55:36;;;;;;;;;;;21.70;46.50;;;;;;5096714;28;19935;-68
2023/03/24 07:58:02;;;;;;;;;;;21.60;46.50;;;;;;5074279;28;19952;-67
2023/03/24 08:00:29;;;;;;;;;;;21.60;46.50;;;;;;5074365;28;20316;-73
2023/03/24 08:02:54;;;;;;;;;;;21.70;46.40;;;;;;5083960;28;20401;-72
2023/03/24 08:05:20;;;;;;;;;;;21.70;47.10;;;;;;5074039;28;19928;-71
2023/03/24 08:07:54;;;;;;;;;;;21.70;46.40;;;;;;5091024;28;19923;-69
2023/03/24 08:10:22;;;;;;;;;;;21.70;46.40;;;;;;5109330;28;19923;-69
2023/03/24 08:12:48;;;;;;;;;;;21.70;46.50;;;;;;5090691;28;19929;-77
2023/03/24 08:15:14;;;;;;;;;;;21.70;46.50;;;;;;5105327;28;20008;-67
2023/03/24 08:17:40;;;;;;;;;;;21.70;46.60;;;;;;5079232;28;19934;-70
2023/03/24 08:20:08;;;;;;;;;;;21.70;46.60;;;;;;5092907;28;19924;-70
2023/03/24 08:22:34;;;;;;;;;;;21.70;46.60;;;;;;5073016;28;19969;-68
2023/03/24 08:24:59;;;;;;;;;;;21.70;46.50;;;;;;5074605;28;19928;-69
2023/03/24 08:27:25;;;;;;;;;;;21.80;46.60;;;;;;5092507;28;19924;-70
2023/03/24 08:29:50;;;;;;;;;;;21.70;46.60;;;;;;5093976;28;19958;-75
2023/03/24 08:32:16;;;;;;;;;;;21.70;46.60;;;;;;5079496;28;20460;-70
2023/03/24 08:34:42;;;;;;;;;;;21.70;46.60;;;;;;5105818;28;19928;-68
2023/03/24 08:37:08;;;;;;;;;;;21.70;46.70;;;;;;5088623;28;19924;-67
2023/03/24 08:39:34;;;;;;;;;;;21.60;46.70;;;;;;5069596;28;19935;-67
2023/03/24 08:42:00;;;;;;;;;;;21.60;46.70;;;;;;5104000;28;19928;-72
2023/03/24 08:44:26;;;;;;;;;;;21.60;46.80;;;;;;5074414;28;19935;-67
2023/03/24 08:46:51;;;;;;;;;;;21.60;46.80;;;;;;5086436;28;19935;-68
2023/03/24 08:49:17;;;;;;;;;;;21.60;46.90;;;;;;5068773;28;19930;-70
2023/03/24 08:51:43;;;;;;;;;;;21.60;46.90;;;;;;5069857;28;20188;-70
2023/03/24 08:54:12;;;;;;;;;;;21.50;46.90;;;;;;5074675;28;20371;-70
2023/03/24 08:56:38;;;;;;;;;;;21.50;47.00;;;;;;5092475;28;20365;-71
2023/03/24 08:59:04;;;;;;;;;;;21.50;47.10;;;;;;5068897;28;19923;-73
2023/03/24 09:01:30;;;;;;;;;;;21.50;47.10;;;;;;5077348;28;20358;-70
2023/03/24 09:03:56;;;;;;;;;;;21.40;47.20;;;;;;5076457;28;20042;-68
2023/03/24 09:06:21;;;;;;;;;;;21.40;47.10;;;;;;5077262;28;20030;-73
2023/03/24 09:08:47;;;;;;;;;;;21.40;47.30;;;;;;5079500;28;20010;-70
2023/03/24 09:11:15;;;;;;;;;;;21.40;47.20;;;;;;5071908;28;19976;-75
2023/03/24 09:13:41;;;;;;;;;;;21.40;47.30;;;;;;5078682;28;19927;-71
2023/03/24 09:16:06;;;;;;;;;;;21.40;47.30;;;;;;5075345;28;20424;-67
2023/03/24 09:18:32;;;;;;;;;;;21.40;47.30;;;;;;5073466;28;19928;-70
2023/03/24 09:20:57;;;;;;;;;;;21.50;47.40;;;;;;5073211;28;20011;-72
2023/03/24 09:23:23;;;;;;;;;;;21.40;47.30;;;;;;5074517;28;19927;-75
2023/03/24 09:25:50;;;;;;;;;;;21.40;47.30;;;;;;5112832;27;20031;-70
2023/03/24 09:28:15;;;;;;;;;;;21.40;47.30;;;;;;5077303;28;20222;-76
2023/03/24 09:30:41;;;;;;;;;;;21.40;47.40;;;;;;5094687;28;20309;-73
2023/03/24 09:33:07;;;;;;;;;;;21.40;47.40;;;;;;5077501;28;19946;-73
2023/03/24 09:35:32;;;;;;;;;;;21.40;48.30;;;;;;5079681;28;19923;-72
2023/03/24 09:37:58;;;;;;;;;;;21.30;47.50;;;;;;5108838;27;20001;-72
2023/03/24 09:40:25;;;;;;;;;;;21.30;47.50;;;;;;5095309;28;20204;-73
2023/03/24 09:42:54;;;;;;;;;;;21.20;47.50;;;;;;5075634;28;20280;-73
2023/03/24 09:45:24;;;;;;;;;;;21.20;47.60;;;;;;5076020;28;19927;-73
2023/03/24 09:47:54;;;;;;;;;;;21.20;47.60;;;;;;5094285;28;19923;-81
2023/03/24 09:50:28;;;;;;;;;;;21.10;47.60;;;;;;5089476;28;20339;-69
2023/03/24 09:52:58;;;;;;;;;;;21.10;47.60;;;;;;5076715;28;20007;-75
2023/03/24 09:55:25;;;;;;;;;;;21.10;47.50;;;;;;5094442;28;20005;-70
2023/03/24 09:57:51;;;;;;;;;;;21.10;47.50;;;;;;5073971;28;19974;-71
2023/03/24 10:03:00;;;;;;;;;;;21.10;47.40;;;;;;5069881;28;19942;-72
2023/03/24 10:05:30;;;;;;;;;;;21.00;47.30;;;;;;5060867;28;19940;-70
2023/03/24 10:08:03;;;;;;;;;;;21.10;47.30;;;;;;5062175;28;19928;-70
2023/03/24 10:10:38;;;;;;;;;;;21.20;47.30;;;;;;5060226;28;19924;-74
2023/03/24 10:13:06;;;;;;;;;;;21.20;47.30;;;;;;5070254;28;20032;-70
2023/03/24 10:21:13;;;;;;;;;;;21.20;47.20;;;;;;5089588;27;19924;-72
2023/03/24 10:23:41;;;;;;;;;;;21.10;47.10;;;;;;5054025;28;19928;-72
2023/03/24 10:26:26;;;;;;;;;;;21.10;47.20;;;;;;5071578;28;20322;-71
2023/03/24 10:29:03;;;;;;;;;;;21.20;47.20;;;;;;5055406;28;19931;-70
2023/03/24 10:31:31;;;;;;;;;;;21.10;47.10;;;;;;5055198;28;19950;-68
2023/03/24 10:33:56;;;;;;;;;;;21.10;47.20;;;;;;5057716;28;19921;-75
2023/03/24 10:36:23;;;;;;;;;;;21.00;47.20;;;;;;5067542;28;20767;-70
2023/03/24 10:38:49;;;;;;;;;;;21.00;47.20;;;;;;5053761;28;19928;-70
2023/03/24 10:41:20;;;;;;;;;;;21.00;47.20;;;;;;5047368;28;19977;-70
2023/03/24 10:43:47;;;;;;;;;;;20.90;47.30;;;;;;5072636;28;20225;-71
2023/03/24 10:46:15;;;;;;;;;;;20.90;47.30;;;;;;5052890;28;19924;-71
2023/03/24 10:48:43;;;;;;;;;;;20.90;47.20;;;;;;5057465;28;19928;-73
2023/03/24 10:54:15;;;;;;;;;;;20.90;47.30;;;;;;5087769;27;19917;-69
2023/03/24 10:56:43;;;;;;;;;;;20.90;47.20;;;;;;5091553;28;19939;-70
2023/03/24 10:59:26;;;;;;;;;;;20.90;47.30;;;;;;5087513;28;20410;-71
2023/03/24 11:01:57;;;;;;;;;;;20.90;47.30;;;;;;5092054;28;19924;-72
2023/03/24 11:04:23;;;;;;;;;;;20.90;47.20;;;;;;5091483;28;19927;-72
2023/03/24 11:06:53;;;;;;;;;;;20.90;47.10;;;;;;5088531;28;19926;-71
2023/03/24 11:09:20;;;;;;;;;;;21.00;47.10;;;;;;5091955;28;19973;-72
2023/03/24 11:11:45;;;;;;;;;;;21.00;47.10;;;;;;5091912;28;19927;-72
2023/03/24 11:14:21;;;;;;;;;;;21.00;47.00;;;;;;5087093;28;19925;-72
2023/03/24 11:16:47;;;;;;;;;;;20.90;47.00;;;;;;5085600;28;19928;-71
2023/03/24 11:19:20;;;;;;;;;;;20.90;46.90;;;;;;5091490;28;19924;-72
2023/03/24 11:21:47;;;;;;;;;;;21.00;47.00;;;;;;5088386;28;19930;-72
2023/03/24 11:24:14;;;;;;;;;;;21.00;47.00;;;;;;5092213;28;19952;-71
2023/03/24 11:26:43;;;;;;;;;;;21.00;47.00;;;;;;5088658;28;19924;-72
2023/03/24 11:29:26;;;;;;;;;;;21.00;46.90;;;;;;5089983;28;20568;-71
2023/03/24 11:31:53;;;;;;;;;;;21.00;46.90;;;;;;5093733;28;19920;-71
2023/03/24 11:34:23;;;;;;;;;;;21.00;46.90;;;;;;5088247;28;19935;-67
2023/03/24 11:39:33;;;;;;;;;;;21.00;45.30;;;;;;5053017;28;20308;-67
2023/03/24 11:42:00;;;;;;;;;;;21.00;44.70;;;;;;5058640;28;19924;-69
2023/03/24 11:44:29;;;;;;;;;;;21.10;44.60;;;;;;5048364;28;19929;-70
2023/03/24 11:46:57;;;;;;;;;;;21.10;44.70;;;;;;5047818;28;19925;-73
2023/03/24 11:49:32;;;;;;;;;;;21.10;45.10;;;;;;5048471;28;19925;-70
2023/03/24 11:52:03;;;;;;;;;;;21.10;45.20;;;;;;5050578;28;20023;-71
2023/03/24 11:54:32;;;;;;;;;;;21.10;45.30;;;;;;5054864;28;20414;-68
2023/03/24 11:56:58;;;;;;;;;;;21.10;45.50;;;;;;5055478;28;19995;-71
2023/03/24 11:59:41;;;;;;;;;;;21.10;45.60;;;;;;5053093;28;19940;-70
2023/03/24 12:02:12;;;;;;;;;;;21.10;45.70;;;;;;5073956;28;19920;-69
2023/03/24 12:07:42;;;;;;;;;;;21.20;46.00;;;;;;5101565;27;19919;-68
2023/03/24 12:10:27;;;;;;;;;;;21.20;45.90;;;;;;5088074;28;19973;-75
2023/03/24 12:13:00;;;;;;;;;;;21.30;45.90;;;;;;5090164;28;19931;-73
2023/03/24 12:15:45;;;;;;;;;;;21.40;46.00;;;;;;5079305;28;19929;-71
2023/03/24 12:21:12;;;;;;;;;;;21.50;45.90;;;;;;5083841;27;20382;-71
2023/03/24 12:23:58;;;;;;;;;;;21.50;45.70;;;;;;5076139;28;19924;-69
2023/03/24 12:26:27;;;;;;;;;;;21.60;45.80;;;;;;5086946;28;19969;-73
2023/03/24 12:34:38;;;;;;;;;;;21.60;46.40;;;;;;5067222;28;19928;-71
2023/03/24 12:39:54;;;;;;;;;;;21.60;45.70;;;;;;5086421;27;19927;-70
2023/03/24 12:42:22;;;;;;;;;;;21.70;45.60;;;;;;5065600;28;19924;-76
2023/03/24 12:47:49;;;;;;;;;;;21.60;45.50;;;;;;5093435;27;19926;-70
2023/03/24 12:53:16;;;;;;;;;;;21.70;45.70;;;;;;5060735;27;19927;-76
2023/03/24 12:55:45;;;;;;;;;;;21.70;45.60;;;;;;5055710;28;20724;-73
2023/03/24 12:58:15;;;;;;;;;;;21.60;45.60;;;;;;5054665;28;20309;-73
2023/03/24 13:00:46;;;;;;;;;;;21.60;45.60;;;;;;5061456;28;20642;-74
2023/03/24 13:03:15;;;;;;;;;;;21.60;45.50;;;;;;5061345;28;19925;-72
2023/03/24 13:05:45;;;;;;;;;;;21.60;45.60;;;;;;5029704;28;19920;-78
2023/03/24 13:08:15;;;;;;;;;;;21.50;45.50;;;;;;5047853;28;20277;-71
2023/03/24 13:10:42;;;;;;;;;;;21.60;45.50;;;;;;5058566;28;19920;-74
2023/03/24 13:18:38;;;;;;;;;;;21.50;45.30;;;;;;5067090;27;19927;-72
2023/03/24 13:23:56;;;;;;;;;;;21.50;45.40;;;;;;5069434;27;19927;-73
2023/03/24 13:26:32;;;;;;;;;;;21.50;45.40;;;;;;5065254;28;20018;-77
2023/03/24 13:29:18;;;;;;;;;;;21.50;45.40;;;;;;5069549;28;20009;-77
2023/03/24 13:34:36;;;;;;;;;;;21.50;45.50;;;;;;5088325;27;19927;-76
2023/03/24 13:37:11;;;;;;;;;;;21.50;45.40;;;;;;5084321;28;20280;-75
2023/03/24 13:39:37;;;;;;;;;;;21.50;45.50;;;;;;5086591;28;19920;-73
2023/03/24 13:42:03;;;;;;;;;;;21.50;45.50;;;;;;5092368;28;19920;-74
2023/03/24 13:49:58;;;;;;;;;;;21.50;45.30;;;;;;5087338;27;19920;-78
2023/03/24 13:52:27;;;;;;;;;;;21.50;45.40;;;;;;5070572;28;19938;-81
2023/03/24 13:54:57;;;;;;;;;;;21.50;45.40;;;;;;5067653;28;19936;-78
2023/03/24 13:57:23;;;;;;;;;;;21.50;45.40;;;;;;5070810;28;20488;-80
2023/03/24 14:00:00;;;;;;;;;;;21.60;45.50;;;;;;5070907;28;19932;-69
2023/03/24 14:05:10;;;;;;;;;;;21.60;45.50;;;;;;5081136;27;19916;-78
2023/03/24 14:13:04;;;;;;;;;;;21.60;45.40;;;;;;5106843;27;19923;-77
2023/03/24 14:15:30;;;;;;;;;;;21.60;45.30;;;;;;5106844;28;20280;-77
2023/03/24 14:18:13;;;;;;;;;;;21.60;45.30;;;;;;5101616;28;19949;-77
2023/03/24 14:20:42;;;;;;;;;;;21.60;45.30;;;;;;5095714;28;19920;-76
2023/03/24 14:23:21;;;;;;;;;;;21.60;45.20;;;;;;5093243;28;19920;-77
2023/03/24 14:25:54;;;;;;;;;;;21.60;45.00;;;;;;5084245;28;19989;-76
2023/03/24 14:28:42;;;;;;;;;;;21.60;45.20;;;;;;5085986;28;19921;-76
2023/03/24 14:39:34;;;;;;;;;;;21.60;44.60;;;;;;5087867;27;19917;-76
2023/03/24 14:41:59;;;;;;;;;;;21.60;44.40;;;;;;5103202;28;20165;-72
2023/03/24 14:44:48;;;;;;;;;;;21.60;44.70;;;;;;5086334;28;19925;-76
2023/03/24 14:47:15;;;;;;;;;;;21.60;44.70;;;;;;5085179;28;19921;-76
2023/03/24 14:49:43;;;;;;;;;;;21.60;44.70;;;;;;5086037;28;19926;-76
2023/03/24 14:54:53;;;;;;;;;;;21.50;44.60;;;;;;5104343;27;19916;-72
2023/03/24 14:57:28;;;;;;;;;;;21.60;44.60;;;;;;5105818;28;19920;-73
2023/03/24 15:02:43;;;;;;;;;;;21.60;44.70;;;;;;5103576;27;19922;-73
2023/03/24 15:05:28;;;;;;;;;;;21.60;44.30;;;;;;5085339;28;19924;-74
2023/03/24 15:07:58;;;;;;;;;;;21.50;43.90;;;;;;5085547;28;19947;-73
2023/03/24 15:10:24;;;;;;;;;;;21.60;43.80;;;;;;5084266;28;20027;-73
2023/03/24 15:12:50;;;;;;;;;;;21.60;43.50;;;;;;5082530;28;20035;-74
2023/03/24 15:15:21;;;;;;;;;;;21.50;43.60;;;;;;5084337;28;19966;-74
2023/03/24 15:17:48;;;;;;;;;;;21.60;43.70;;;;;;5084119;28;20364;-74
2023/03/24 15:20:31;;;;;;;;;;;21.60;43.70;;;;;;5086034;28;20367;-75
2023/03/24 15:23:04;;;;;;;;;;;21.50;43.80;;;;;;5082305;28;19967;-74
2023/03/24 15:25:32;;;;;;;;;;;21.50;44.00;;;;;;5081999;28;19927;-72
2023/03/24 15:27:58;;;;;;;;;;;21.50;44.30;;;;;;5085344;28;19921;-72
2023/03/24 15:30:24;;;;;;;;;;;21.40;44.40;;;;;;5084463;28;19931;-71
2023/03/24 15:32:50;;;;;;;;;;;21.40;44.50;;;;;;5084050;28;19924;-72
2023/03/24 15:35:18;;;;;;;;;;;21.40;44.80;;;;;;5084927;28;19942;-71
2023/03/24 15:37:48;;;;;;;;;;;21.40;44.90;;;;;;5084248;28;19974;-73
2023/03/24 15:40:30;;;;;;;;;;;21.40;45.00;;;;;;5084049;28;19921;-74
2023/03/24 15:42:57;;;;;;;;;;;21.40;45.10;;;;;;5085332;28;20346;-76
2023/03/24 15:48:12;;;;;;;;;;;21.30;45.40;;;;;;5125353;27;19927;-71
2023/03/24 15:50:54;;;;;;;;;;;21.30;45.40;;;;;;5148640;27;19920;-71
2023/03/24 15:53:22;;;;;;;;;;;21.20;45.40;;;;;;5157462;27;20374;-72
2023/03/24 15:55:59;;;;;;;;;;;21.10;45.40;;;;;;5107710;28;20429;-72
2023/03/24 15:58:27;;;;;;;;;;;21.10;45.70;;;;;;5127182;28;19920;-68
2023/03/24 16:00:56;;;;;;;;;;;21.00;45.90;;;;;;5128473;28;19962;-70
2023/03/24 16:03:26;;;;;;;;;;;21.00;46.10;;;;;;5127284;28;20366;-71